Time;durP1;ratioP1;P1;durP2;ratioP2;P2;SDS_P1;SDS_P2;PMS_P1;PMS_P2;Temp;Humidity;BMP_temperature;BMP_pressure;BME280_temperature;BME280_humidity;BME280_pressure;Samples;Min_cycle;Max_cycle;Signal;HPM_P1;HPM_P2
2022/03/21 00:01:57;;;;;;;83.72;38.97;;;;;;;4.86;49.90;103040.59;5074500;28;20324;-70
2022/03/21 00:04:23;;;;;;;72.90;40.72;;;;;;;5.23;49.13;103034.56;5072303;28;20039;-71
2022/03/21 00:06:49;;;;;;;68.18;39.42;;;;;;;4.90;49.81;103047.31;5073243;28;20048;-71
2022/03/21 00:09:15;;;;;;;69.18;40.08;;;;;;;5.06;49.79;103041.88;5096645;28;20054;-69
2022/03/21 00:11:40;;;;;;;56.80;37.88;;;;;;;5.06;49.72;103041.03;5093051;28;20544;-71
2022/03/21 00:14:06;;;;;;;62.40;39.65;;;;;;;5.12;49.01;103041.19;5093126;28;20032;-70
2022/03/21 00:16:31;;;;;;;77.10;39.63;;;;;;;5.03;48.91;103038.66;5092507;28;20563;-69
2022/03/21 00:18:57;;;;;;;56.60;37.63;;;;;;;5.07;48.71;103051.59;5074188;28;20119;-72
2022/03/21 00:21:22;;;;;;;57.70;38.13;;;;;;;5.04;48.17;103049.28;5092350;28;20050;-69
2022/03/21 00:23:48;;;;;;;56.40;37.10;;;;;;;4.97;48.70;103040.22;5091790;28;20056;-70
2022/03/21 00:26:15;;;;;;;59.47;37.72;;;;;;;4.58;49.96;103050.94;5086868;28;20033;-70
2022/03/21 00:28:41;;;;;;;61.88;38.45;;;;;;;4.83;49.08;103050.88;5092128;28;20043;-71
2022/03/21 00:31:06;;;;;;;49.67;35.53;;;;;;;4.93;48.83;103057.72;5091930;28;20136;-69
2022/03/21 00:33:32;;;;;;;57.17;37.90;;;;;;;4.83;49.08;103053.56;5094507;28;20066;-70
2022/03/21 00:35:58;;;;;;;51.13;34.92;;;;;;;4.77;48.42;103056.94;5112272;28;20040;-70
2022/03/21 00:38:24;;;;;;;49.05;34.65;;;;;;;4.57;49.36;103067.25;5112852;28;20046;-69
2022/03/21 00:40:50;;;;;;;53.70;36.05;;;;;;;4.66;49.08;103070.72;5112350;28;20082;-70
2022/03/21 00:43:21;;;;;;;52.30;35.72;;;;;;;4.80;48.90;103067.34;5112308;28;20040;-69
2022/03/21 00:45:46;;;;;;;48.80;32.65;;;;;;;4.59;49.64;103062.53;5094593;28;20035;-71
2022/03/21 00:48:13;;;;;;;51.20;35.97;;;;;;;4.63;49.16;103064.69;5099563;28;20087;-69
2022/03/21 00:50:38;;;;;;;53.60;36.78;;;;;;;4.62;49.03;103062.16;5091875;28;20446;-70
2022/03/21 00:53:04;;;;;;;54.72;36.50;;;;;;;4.22;49.76;103064.94;5074486;28;20103;-70
2022/03/21 00:55:29;;;;;;;93.50;31.67;;;;;;;3.89;49.77;103068.53;5072990;28;20503;-70
2022/03/21 00:57:56;;;;;;;82.68;32.25;;;;;;;3.84;49.51;103066.38;5091935;28;20043;-69
2022/03/21 01:00:25;;;;;;;104.35;32.00;;;;;;;3.46;50.50;103067.81;5091780;28;20032;-70
2022/03/21 01:02:50;;;;;;;47.78;28.63;;;;;;;3.62;50.43;103067.00;5091334;28;20088;-70
2022/03/21 01:05:16;;;;;;;68.47;29.60;;;;;;;4.09;48.67;103070.75;5073384;28;20419;-70
2022/03/21 01:07:42;;;;;;;62.55;28.20;;;;;;;4.02;48.21;103075.13;5083867;28;20399;-72
2022/03/21 01:10:11;;;;;;;37.63;28.67;;;;;;;4.16;48.26;103069.09;5091522;28;20047;-70
2022/03/21 01:12:36;;;;;;;41.33;27.20;;;;;;;3.62;49.53;103089.31;5091292;28;20040;-70
2022/03/21 01:15:03;;;;;;;38.25;28.33;;;;;;;3.66;48.67;103084.47;5091199;28;20614;-69
2022/03/21 01:17:29;;;;;;;37.53;27.90;;;;;;;3.79;48.71;103084.81;5091796;28;20032;-72
2022/03/21 01:19:55;;;;;;;40.03;28.92;;;;;;;3.96;48.25;103083.84;5091147;28;20310;-70
2022/03/21 01:22:20;;;;;;;36.97;27.48;;;;;;;3.76;48.61;103090.53;5087690;28;20393;-70
2022/03/21 01:24:46;;;;;;;40.10;29.67;;;;;;;3.82;48.45;103087.19;5090707;28;20040;-70
2022/03/21 01:27:12;;;;;;;37.85;27.52;;;;;;;3.82;48.46;103087.19;5090945;28;20028;-70
2022/03/21 01:29:37;;;;;;;44.70;28.05;;;;;;;3.43;48.75;103092.31;5090659;28;20040;-70
2022/03/21 01:32:03;;;;;;;36.40;26.70;;;;;;;3.64;48.87;103094.53;5089559;28;20036;-69
2022/03/21 01:34:29;;;;;;;48.97;28.23;;;;;;;4.02;47.26;103093.09;5109943;28;20035;-70
2022/03/21 01:36:55;;;;;;;36.38;28.35;;;;;;;3.94;47.29;103095.75;5111372;28;20043;-70
2022/03/21 01:39:20;;;;;;;33.10;26.60;;;;;;;3.75;47.81;103099.56;5111204;28;20459;-71
2022/03/21 01:41:46;;;;;;;37.17;27.95;;;;;;;3.54;48.54;103101.88;5111121;28;20080;-69
2022/03/21 01:44:12;;;;;;;37.45;28.05;;;;;;;3.80;48.15;103102.63;5111670;28;20409;-70
2022/03/21 01:46:39;;;;;;;41.85;31.15;;;;;;;3.97;48.46;103098.94;5111218;28;20043;-70
2022/03/21 01:49:08;;;;;;;43.93;31.13;;;;;;;3.97;48.50;103098.94;5090860;28;20047;-70
2022/03/21 01:51:36;;;;;;;43.33;31.55;;;;;;;4.04;49.11;103108.03;5072622;28;20032;-72
2022/03/21 01:56:47;;;;;;;46.58;33.40;;;;;;;4.33;47.82;103107.56;5090969;28;20555;-70
2022/03/21 01:59:14;;;;;;;47.67;33.00;;;;;;;4.21;47.55;103101.69;5091171;28;20024;-71
2022/03/21 02:01:41;;;;;;;44.40;30.65;;;;;;;4.11;48.19;103109.06;5085381;28;20048;-71
2022/03/21 02:04:07;;;;;;;43.67;30.83;;;;;;;4.17;48.04;103104.88;5090541;28;20054;-70
2022/03/21 02:06:32;;;;;;;45.67;30.85;;;;;;;4.21;47.97;103103.53;5090540;28;20119;-70
2022/03/21 02:08:59;;;;;;;53.17;35.00;;;;;;;4.17;48.83;103111.09;5072591;28;20457;-69
2022/03/21 02:11:29;;;;;;;55.67;36.47;;;;;;;4.44;48.03;103104.53;5091182;28;20117;-71
2022/03/21 02:13:59;;;;;;;57.40;36.08;;;;;;;4.46;47.84;103108.72;5090203;28;20097;-70
2022/03/21 02:16:29;;;;;;;60.30;36.67;;;;;;;4.27;48.79;103106.41;5090475;28;20054;-70
2022/03/21 02:18:58;;;;;;;53.95;35.80;;;;;;;4.27;48.97;103108.25;5071905;28;20517;-71
2022/03/21 02:21:41;;;;;;;58.63;36.75;;;;;;;4.44;47.93;103100.00;5090103;28;20118;-70
2022/03/21 02:24:19;;;;;;;76.85;38.88;;;;;;;4.21;49.36;103101.69;5090441;28;20066;-70
2022/03/21 02:26:46;;;;;;;79.10;36.78;;;;;;;4.35;49.50;103103.72;5089734;28;20119;-71
2022/03/21 02:29:13;;;;;;;72.22;38.65;;;;;;;4.34;49.26;103102.03;5090634;28;20028;-71
2022/03/21 02:31:39;;;;;;;85.28;37.38;;;;;;;4.48;48.87;103106.72;5090261;28;20047;-70
2022/03/21 02:34:05;;;;;;;98.40;37.72;;;;;;;4.35;49.54;103101.03;5090092;28;20044;-72
2022/03/21 02:36:32;;;;;;;90.07;37.55;;;;;;;4.28;50.29;103091.13;5089874;28;20055;-70
2022/03/21 02:38:59;;;;;;;74.18;37.15;;;;;;;4.47;49.19;103105.06;5072301;28;20135;-69
2022/03/21 02:41:24;;;;;;;96.50;37.15;;;;;;;4.25;49.80;103100.34;5070727;28;20047;-69
2022/03/21 02:43:59;;;;;;;118.85;34.15;;;;;;;4.38;49.60;103098.00;5069860;28;20036;-72
2022/03/21 02:46:26;;;;;;;100.68;36.60;;;;;;;4.60;48.68;103097.31;5069989;28;20499;-71
2022/03/21 02:48:54;;;;;;;105.40;36.30;;;;;;;4.08;50.65;103098.66;5082219;28;20046;-70
2022/03/21 02:51:21;;;;;;;117.35;35.90;;;;;;;4.29;49.67;103099.00;5089824;28;20039;-70
2022/03/21 02:53:49;;;;;;;112.05;36.28;;;;;;;3.92;50.87;103097.78;5090023;28;20040;-70
2022/03/21 02:56:15;;;;;;;102.80;34.13;;;;;;;3.77;51.60;103101.09;5093930;28;20031;-70
2022/03/21 02:58:40;;;;;;;102.10;37.45;;;;;;;4.22;50.08;103103.34;5093835;28;20032;-70
2022/03/21 03:01:11;;;;;;;76.63;35.75;;;;;;;4.13;49.63;103100.84;5089226;28;20090;-70
2022/03/21 03:03:36;;;;;;;89.90;37.75;;;;;;;4.11;49.66;103101.00;5065381;28;20536;-70
2022/03/21 03:06:02;;;;;;;70.47;33.78;;;;;;;4.10;49.71;103101.19;5073555;28;20111;-70
2022/03/21 03:08:29;;;;;;;94.93;34.08;;;;;;;4.11;49.60;103108.22;5073920;28;20059;-70
2022/03/21 03:10:55;;;;;;;69.95;35.55;;;;;;;4.00;49.92;103106.69;5073217;28;20539;-70
2022/03/21 03:13:20;;;;;;;80.78;33.95;;;;;;;3.91;49.31;103109.50;5073190;28;20028;-70
2022/03/21 03:15:47;;;;;;;78.10;32.15;;;;;;;4.04;48.93;103113.41;5073342;28;20440;-70
2022/03/21 03:18:13;;;;;;;62.60;33.78;;;;;;;4.00;48.72;103112.06;5055506;28;20172;-70
2022/03/21 03:20:45;;;;;;;86.07;36.15;;;;;;;3.93;49.14;103118.22;5072927;28;20043;-70
2022/03/21 03:23:11;;;;;;;97.85;33.15;;;;;;;3.42;50.63;103114.75;5086985;28;20028;-69
2022/03/21 03:25:37;;;;;;;93.60;33.13;;;;;;;3.27;50.43;103123.56;5112955;28;20496;-70
2022/03/21 03:28:02;;;;;;;82.45;30.63;;;;;;;3.26;50.78;103121.88;5093091;28;20620;-69
2022/03/21 03:30:28;;;;;;;62.28;30.10;;;;;;;3.55;49.70;103122.34;5093450;28;20123;-71
2022/03/21 03:32:53;;;;;;;57.70;30.88;;;;;;;3.39;49.94;103124.97;5093350;28;20056;-69
2022/03/21 03:35:19;;;;;;;54.95;30.52;;;;;;;3.46;49.42;103121.47;5093427;28;20031;-70
2022/03/21 03:37:45;;;;;;;55.95;32.17;;;;;;;3.35;49.76;103123.63;5093082;28;20493;-71
2022/03/21 03:40:11;;;;;;;60.67;32.15;;;;;;;3.41;49.19;103122.97;5092902;28;20059;-70
2022/03/21 03:42:36;;;;;;;51.83;32.13;;;;;;;3.17;50.25;103126.38;5092966;28;20025;-70
2022/03/21 03:45:03;;;;;;;58.53;31.57;;;;;;;3.34;49.72;103129.97;5092830;28;20132;-70
2022/03/21 03:47:28;;;;;;;53.83;33.13;;;;;;;3.42;49.34;103125.50;5093442;28;20480;-71
2022/03/21 03:49:53;;;;;;;54.95;32.72;;;;;;;3.41;49.49;103120.28;5092717;28;20036;-70
2022/03/21 03:52:19;;;;;;;58.47;32.35;;;;;;;3.74;48.86;103122.91;5092803;28;20385;-69
2022/03/21 03:54:45;;;;;;;56.67;34.13;;;;;;;3.77;48.84;103119.88;5092721;28;20036;-70
2022/03/21 03:57:11;;;;;;;55.03;35.00;;;;;;;3.55;48.63;103131.22;5092543;28;20043;-70
2022/03/21 03:59:37;;;;;;;55.87;33.10;;;;;;;3.50;48.89;103124.66;5092582;28;20032;-71
2022/03/21 04:02:02;;;;;;;56.65;34.67;;;;;;;3.34;50.44;103135.34;5082785;28;20032;-70
2022/03/21 04:04:28;;;;;;;61.53;32.47;;;;;;;3.30;49.58;103125.91;5092619;28;20040;-71
2022/03/21 04:06:53;;;;;;;55.72;34.80;;;;;;;3.49;50.06;103131.06;5091896;28;20116;-70
2022/03/21 04:09:18;;;;;;;58.13;34.30;;;;;;;3.57;48.99;103131.09;5092750;28;20571;-70
2022/03/21 04:11:44;;;;;;;51.80;34.87;;;;;;;3.60;48.79;103128.91;5092751;28;20031;-70
2022/03/21 04:14:09;;;;;;;55.60;35.80;;;;;;;3.51;48.37;103124.50;5092805;28;20039;-71
2022/03/21 04:16:36;;;;;;;54.77;35.63;;;;;;;3.51;48.61;103126.38;5092261;28;20504;-70
2022/03/21 04:19:02;;;;;;;67.47;35.43;;;;;;;3.34;48.74;103128.13;5099243;28;20035;-71
2022/03/21 04:21:27;;;;;;;53.57;34.27;;;;;;;3.35;48.94;103127.16;5112621;28;20039;-71
2022/03/21 04:23:53;;;;;;;47.28;33.97;;;;;;;3.38;49.35;103121.44;5094268;28;20139;-70
2022/03/21 04:26:19;;;;;;;50.25;33.45;;;;;;;3.43;49.34;103118.28;5087111;28;20061;-70
2022/03/21 04:28:45;;;;;;;51.47;33.42;;;;;;;3.16;49.65;103119.31;5073751;28;20040;-70
2022/03/21 04:31:10;;;;;;;54.05;33.03;;;;;;;3.26;49.91;103125.41;5092148;28;20504;-70
2022/03/21 04:33:35;;;;;;;54.22;33.50;;;;;;;3.50;48.77;103116.63;5092011;28;20043;-70
2022/03/21 04:36:01;;;;;;;54.07;34.10;;;;;;;3.44;49.14;103119.94;5092221;28;20040;-70
2022/03/21 04:38:27;;;;;;;51.90;35.05;;;;;;;3.43;48.97;103119.13;5092313;28;20068;-71
2022/03/21 04:40:52;;;;;;;54.23;34.87;;;;;;;3.48;48.65;103121.31;5091941;28;20432;-70
2022/03/21 04:43:19;;;;;;;50.67;34.83;;;;;;;3.37;49.88;103129.66;5091948;28;20496;-70
2022/03/21 04:45:46;;;;;;;49.40;34.93;;;;;;;3.51;48.79;103127.19;5092003;28;20090;-69
2022/03/21 04:48:12;;;;;;;49.97;32.47;;;;;;;3.13;50.37;103134.91;5091699;28;20028;-71
2022/03/21 04:50:38;;;;;;;54.20;34.30;;;;;;;3.57;48.52;103131.91;5091632;28;20047;-69
2022/03/21 04:53:04;;;;;;;46.33;30.73;;;;;;;3.26;49.50;103138.81;5092015;28;20031;-70
2022/03/21 04:55:30;;;;;;;49.67;33.20;;;;;;;3.49;48.40;103139.94;5091686;28;20275;-71
2022/03/21 04:57:55;;;;;;;49.13;34.03;;;;;;;3.58;48.22;103130.91;5091629;28;20071;-70
2022/03/21 05:00:21;;;;;;;48.05;32.72;;;;;;;3.47;48.67;103135.75;5091719;28;20039;-70
2022/03/21 05:02:46;;;;;;;51.83;32.08;;;;;;;3.52;47.99;103128.88;5068241;28;20175;-69
2022/03/21 05:05:12;;;;;;;50.87;31.53;;;;;;;3.47;48.14;103135.75;5071595;28;20063;-71
2022/03/21 05:07:52;;;;;;;47.97;32.80;;;;;;;3.49;48.10;103139.94;5070853;28;20087;-70
2022/03/21 05:10:19;;;;;;;44.67;30.30;;;;;;;3.41;48.52;103139.91;5071231;28;20048;-71
2022/03/21 05:12:44;;;;;;;49.80;31.27;;;;;;;3.43;48.09;103142.44;5070680;28;20058;-70
2022/03/21 05:15:10;;;;;;;46.73;30.90;;;;;;;3.58;48.31;103138.97;5077498;28;20077;-71
2022/03/21 05:17:35;;;;;;;48.83;30.60;;;;;;;3.67;47.75;103143.34;5090631;28;20058;-70
2022/03/21 05:20:02;;;;;;;45.55;29.20;;;;;;;3.67;47.63;103147.88;5088088;28;20510;-70
2022/03/21 05:22:28;;;;;;;100.70;31.53;;;;;;;3.16;48.91;103145.31;5069962;28;20124;-71
2022/03/21 05:36:00;;;;;;;47.80;31.38;;;;;;;3.27;48.51;103150.41;4984411;28;20443;-71
2022/03/21 05:38:28;;;;;;;45.47;29.98;;;;;;;3.13;48.70;103154.53;4989140;28;20042;-71
2022/03/21 05:40:56;;;;;;;46.07;29.33;;;;;;;3.25;49.07;103157.78;4988672;28;20146;-69
2022/03/21 05:43:23;;;;;;;43.80;29.47;;;;;;;3.21;48.52;103154.56;4988616;28;20088;-70
2022/03/21 05:45:49;;;;;;;44.03;29.50;;;;;;;3.33;48.54;103150.63;4988727;28;20070;-70
2022/03/21 05:50:59;;;;;;;47.03;29.80;;;;;;;3.35;48.73;103166.53;4996441;28;20122;-71
2022/03/21 05:53:24;;;;;;;44.80;29.48;;;;;;;3.45;48.16;103164.59;5000134;28;20050;-71
2022/03/21 05:55:50;;;;;;;43.87;28.13;;;;;;;3.37;48.87;103159.19;4997072;28;20344;-71
2022/03/21 05:58:15;;;;;;;45.43;29.63;;;;;;;3.53;48.12;103161.94;4998333;28;20052;-70
2022/03/21 06:00:41;;;;;;;49.50;30.97;;;;;;;3.52;48.53;103169.16;4998102;28;20058;-71
2022/03/21 06:03:08;;;;;;;44.80;29.47;;;;;;;3.62;48.05;103156.44;4996725;28;20049;-72
2022/03/21 06:05:34;;;;;;;43.10;28.55;;;;;;;3.63;48.05;103158.09;4996674;28;20065;-71
2022/03/21 06:08:00;;;;;;;43.90;30.75;;;;;;;3.73;47.65;103171.38;5087142;28;20036;-70
2022/03/21 06:10:25;;;;;;;42.40;30.83;;;;;;;3.59;49.11;103169.34;5084420;28;20082;-69
2022/03/21 06:12:50;;;;;;;44.70;28.27;;;;;;;3.81;48.46;103167.91;5087074;28;20115;-70
2022/03/21 06:15:16;;;;;;;52.00;30.88;;;;;;;3.80;48.57;103164.38;5087946;28;20067;-71
2022/03/21 06:17:43;;;;;;;45.55;28.20;;;;;;;3.83;48.64;103168.59;5089121;28;20397;-69
2022/03/21 06:20:14;;;;;;;41.55;27.10;;;;;;;3.58;49.81;103173.03;5094564;28;20080;-70
2022/03/21 06:22:41;;;;;;;44.80;28.38;;;;;;;3.84;48.87;103170.25;5093218;28;20030;-71
2022/03/21 06:25:07;;;;;;;40.50;27.13;;;;;;;3.70;50.04;103171.72;5098340;28;20036;-73
2022/03/21 06:27:39;;;;;;;42.97;29.37;;;;;;;3.67;49.77;103174.72;5088040;28;20119;-71
2022/03/21 06:30:07;;;;;;;44.25;26.13;;;;;;;3.57;50.00;103176.72;5090856;28;20028;-71
2022/03/21 06:32:33;;;;;;;41.25;27.73;;;;;;;3.96;48.71;103175.16;5100076;28;20036;-69
2022/03/21 06:34:59;;;;;;;43.53;27.60;;;;;;;3.82;49.13;103180.31;5094790;28;20343;-72
2022/03/21 06:37:24;;;;;;;43.35;28.08;;;;;;;4.04;48.38;103177.88;5088229;28;20031;-70
2022/03/21 06:39:50;;;;;;;40.03;26.98;;;;;;;4.03;48.43;103178.03;5087514;28;20039;-72
2022/03/21 06:42:16;;;;;;;42.83;28.08;;;;;;;4.19;48.09;103188.84;5087386;28;20081;-70
2022/03/21 06:44:42;;;;;;;42.35;26.73;;;;;;;4.20;48.46;103187.84;5068992;28;20024;-70
2022/03/21 06:47:09;;;;;;;41.05;26.05;;;;;;;4.42;47.57;103195.25;5090266;28;20085;-71
2022/03/21 06:49:35;;;;;;;42.63;27.27;;;;;;;4.49;46.95;103188.22;5086564;28;20515;-72
2022/03/21 06:52:05;;;;;;;41.72;25.42;;;;;;;4.48;46.74;103195.44;5072765;28;20024;-72
2022/03/21 06:54:31;;;;;;;44.15;27.05;;;;;;;4.56;47.85;103197.28;5086052;28;20052;-73
2022/03/21 06:56:56;;;;;;;39.85;25.45;;;;;;;4.70;46.99;103203.81;5089853;28;20070;-71
2022/03/21 06:59:23;;;;;;;48.45;27.13;;;;;;;4.83;46.77;103202.31;5088992;28;20016;-70
2022/03/21 07:01:49;;;;;;;38.15;25.10;;;;;;;4.99;46.40;103206.81;5067086;28;20036;-70
2022/03/21 07:04:14;;;;;;;42.50;26.42;;;;;;;5.12;46.93;103205.31;5085721;28;20032;-72
2022/03/21 07:06:40;;;;;;;43.67;27.05;;;;;;;5.08;46.71;103205.81;5088495;28;20151;-70
2022/03/21 07:09:05;;;;;;;51.47;25.77;;;;;;;5.22;46.73;103207.81;5088323;28;20036;-70
2022/03/21 07:11:32;;;;;;;37.92;25.10;;;;;;;5.17;47.09;103202.09;5090550;28;20035;-71
2022/03/21 07:13:57;;;;;;;36.80;25.60;;;;;;;5.29;46.69;103198.03;5054985;28;20047;-70
2022/03/21 07:16:23;;;;;;;41.67;26.70;;;;;;;5.37;46.97;103208.78;5092198;28;20430;-71
2022/03/21 07:18:49;;;;;;;41.25;24.83;;;;;;;5.40;46.86;103205.72;5089820;28;20040;-71
2022/03/21 07:21:16;;;;;;;43.47;26.58;;;;;;;5.43;46.56;103206.25;5086198;28;20089;-71
2022/03/21 07:23:42;;;;;;;47.53;27.88;;;;;;;5.52;47.41;103212.44;5090784;28;20485;-71
2022/03/21 07:26:07;;;;;;;43.45;28.48;;;;;;;5.54;48.06;103213.09;5086632;28;20052;-72
2022/03/21 07:28:33;;;;;;;46.05;27.20;;;;;;;5.72;47.32;103215.59;5088231;28;20134;-69
2022/03/21 07:30:58;;;;;;;42.50;27.90;;;;;;;5.74;47.85;103208.16;5088126;28;20119;-70
2022/03/21 07:33:24;;;;;;;44.35;27.52;;;;;;;5.95;47.34;103217.31;5087627;28;20115;-72
2022/03/21 07:35:50;;;;;;;47.45;27.95;;;;;;;6.03;47.52;103216.44;5086072;28;20055;-71
2022/03/21 07:38:18;;;;;;;40.92;27.55;;;;;;;6.09;47.53;103230.06;5086892;28;20457;-72
2022/03/21 07:40:46;;;;;;;44.45;26.83;;;;;;;6.34;47.69;103220.78;5087197;28;20039;-71
2022/03/21 07:43:12;;;;;;;44.20;26.60;;;;;;;6.34;48.27;103236.16;5087711;28;20024;-72
2022/03/21 07:48:23;;;;;;;45.80;27.35;;;;;;;6.63;47.70;103227.34;5087783;28;20040;-72
2022/03/21 07:50:48;;;;;;;46.83;29.27;;;;;;;6.78;47.70;103222.84;5088025;28;20114;-71
2022/03/21 07:53:13;;;;;;;50.92;28.67;;;;;;;6.83;47.63;103226.69;5071349;28;20040;-73
2022/03/21 07:55:39;;;;;;;46.25;28.98;;;;;;;7.00;47.64;103233.59;5094343;28;20036;-72
2022/03/21 07:58:04;;;;;;;54.95;31.58;;;;;;;7.03;47.82;103230.56;5090402;28;20032;-72
2022/03/21 08:00:31;;;;;;;53.65;31.45;;;;;;;7.17;47.74;103235.16;5090264;28;20538;-73
2022/03/21 08:02:58;;;;;;;58.65;33.92;;;;;;;7.09;48.69;103237.09;5093040;28;20024;-73
2022/03/21 08:05:24;;;;;;;58.88;35.80;;;;;;;7.34;47.98;103235.84;5091970;28;20389;-73
2022/03/21 08:07:51;;;;;;;53.72;34.63;;;;;;;7.43;48.28;103236.56;5092210;28;20035;-73
2022/03/21 08:10:18;;;;;;;59.72;37.42;;;;;;;7.17;49.27;103237.00;5092428;28;20032;-74
2022/03/21 08:12:46;;;;;;;59.45;34.78;;;;;;;7.63;48.08;103235.00;5092188;28;20036;-73
2022/03/21 08:15:13;;;;;;;59.97;34.78;;;;;;;7.11;49.96;103244.00;5092639;28;20255;-72
2022/03/21 08:17:52;;;;;;;60.28;35.53;;;;;;;7.73;48.39;103240.97;5092332;28;20113;-72
2022/03/21 08:20:19;;;;;;;61.13;33.75;;;;;;;7.57;48.61;103243.84;5093235;28;20504;-72
2022/03/21 08:22:47;;;;;;;56.45;33.88;;;;;;;7.69;48.46;103243.22;5092549;28;20035;-73
2022/03/21 08:25:15;;;;;;;62.72;35.80;;;;;;;8.09;47.76;103253.47;5092073;28;20505;-73
2022/03/21 08:27:41;;;;;;;59.58;35.47;;;;;;;8.26;47.26;103246.00;5086382;28;20043;-72
2022/03/21 08:30:07;;;;;;;58.22;34.40;;;;;;;8.40;47.45;103238.91;5083116;28;20028;-71
2022/03/21 08:32:32;;;;;;;59.17;35.97;;;;;;;8.29;48.35;103244.81;5083434;28;20043;-73
2022/03/21 08:34:58;;;;;;;61.22;35.60;;;;;;;8.48;47.91;103247.75;5095131;28;20044;-72
2022/03/21 08:37:25;;;;;;;53.95;33.38;;;;;;;8.41;48.36;103249.53;5094910;28;20031;-71
2022/03/21 08:39:50;;;;;;;53.38;33.05;;;;;;;8.36;48.66;103253.84;5097081;28;20028;-71
2022/03/21 08:42:17;;;;;;;53.72;34.35;;;;;;;8.72;48.04;103246.53;5094430;28;20035;-72
2022/03/21 08:44:42;;;;;;;60.20;34.67;;;;;;;8.93;47.77;103244.63;5093943;28;20097;-71
2022/03/21 08:47:08;;;;;;;53.47;33.88;;;;;;;8.87;47.45;103249.97;5105013;28;20023;-74
2022/03/21 08:49:37;;;;;;;61.15;32.83;;;;;;;8.93;47.56;103252.75;5096071;28;20047;-71
2022/03/21 08:52:05;;;;;;;57.63;33.58;;;;;;;8.96;47.93;103248.81;5097878;28;20106;-72
2022/03/21 08:54:30;;;;;;;54.80;32.83;;;;;;;9.23;47.08;103253.41;5096638;28;20036;-73
2022/03/21 08:56:56;;;;;;;53.88;32.97;;;;;;;9.60;47.19;103252.22;5096504;28;20081;-71
2022/03/21 08:59:21;;;;;;;59.13;34.92;;;;;;;9.21;48.19;103255.50;5097299;28;20432;-73
2022/03/21 09:01:48;;;;;;;63.97;35.47;;;;;;;9.93;46.54;103253.22;5099585;28;20086;-72
2022/03/21 09:04:13;;;;;;;66.43;35.08;;;;;;;9.87;46.44;103253.19;5093249;28;20028;-72
2022/03/21 09:06:39;;;;;;;55.00;33.75;;;;;;;9.96;46.92;103254.72;5098137;28;20035;-73
2022/03/21 09:09:04;;;;;;;54.45;36.33;;;;;;;10.30;45.93;103244.59;5095998;28;20107;-74
2022/03/21 09:11:30;;;;;;;61.78;36.28;;;;;;;10.43;46.23;103239.19;5099108;28;20123;-72
2022/03/21 09:13:56;;;;;;;54.65;35.80;;;;;;;10.51;46.02;103238.22;5096930;28;20032;-72
2022/03/21 09:16:21;;;;;;;52.15;34.60;;;;;;;10.33;46.57;103237.94;5093461;28;20061;-72
2022/03/21 09:18:47;;;;;;;60.40;34.15;;;;;;;10.70;45.94;103242.84;5096511;28;20036;-72
2022/03/21 09:21:13;;;;;;;64.47;34.80;;;;;;;10.93;45.59;103235.13;5098392;28;20059;-72
2022/03/21 09:23:39;;;;;;;60.90;34.58;;;;;;;10.98;45.41;103235.31;5098754;28;20036;-73
2022/03/21 09:26:08;;;;;;;47.25;30.15;;;;;;;10.83;45.18;103240.13;5093868;28;20033;-73
2022/03/21 09:28:33;;;;;;;47.88;28.55;;;;;;;11.30;44.45;103236.34;5087926;28;20139;-72
2022/03/21 09:30:59;;;;;;;53.72;29.88;;;;;;;11.25;43.33;103237.00;5093416;28;20092;-70
2022/03/21 09:33:26;;;;;;;44.58;27.15;;;;;;;11.37;43.15;103232.59;5096545;28;20038;-71
2022/03/21 09:35:51;;;;;;;43.38;26.98;;;;;;;11.77;43.02;103237.97;5095691;28;20440;-72
2022/03/21 09:38:17;;;;;;;42.75;24.75;;;;;;;11.35;43.04;103231.13;5097004;28;20218;-71
2022/03/21 09:40:44;;;;;;;38.10;25.83;;;;;;;11.92;42.98;103228.47;5111185;28;20400;-72
2022/03/21 09:43:10;;;;;;;40.67;24.83;;;;;;;11.96;41.56;103229.72;5111102;28;20031;-70
2022/03/21 09:45:36;;;;;;;52.70;26.65;;;;;;;12.24;42.63;103230.19;5086201;28;20086;-71
2022/03/21 09:48:08;;;;;;;40.63;26.63;;;;;;;12.44;41.63;103223.84;5090658;28;20107;-71
2022/03/21 09:50:36;;;;;;;42.28;27.70;;;;;;;11.69;42.38;103233.56;5090787;28;20130;-69
2022/03/21 09:53:06;;;;;;;52.42;29.17;;;;;;;12.36;41.73;103228.44;5099992;28;20488;-74
2022/03/21 09:55:31;;;;;;;41.70;27.98;;;;;;;12.59;41.50;103229.81;5110795;28;20044;-71
2022/03/21 09:57:57;;;;;;;43.60;26.13;;;;;;;12.82;41.08;103228.16;5105294;28;20031;-71
2022/03/21 10:00:24;;;;;;;43.55;28.25;;;;;;;12.41;40.36;103220.47;5110875;28;20039;-71
2022/03/21 10:02:50;;;;;;;44.28;27.48;;;;;;;13.11;40.13;103230.22;5108455;28;20023;-71
2022/03/21 10:05:37;;;;;;;43.88;28.52;;;;;;;12.53;40.49;103225.22;5090963;28;20085;-73
2022/03/21 10:08:22;;;;;;;39.58;27.10;;;;;;;13.19;39.98;103226.34;5090903;28;20509;-72
2022/03/21 10:10:50;;;;;;;43.55;27.80;;;;;;;13.26;38.80;103221.69;5090282;28;20066;-72
2022/03/21 10:13:17;;;;;;;39.67;28.15;;;;;;;13.33;39.28;103217.03;5090420;28;20032;-72
2022/03/21 10:15:42;;;;;;;41.33;26.95;;;;;;;13.45;37.79;103217.09;5090664;28;20113;-71
2022/03/21 10:18:09;;;;;;;40.75;26.73;;;;;;;12.56;37.50;103219.34;5090541;28;20040;-72
2022/03/21 10:20:37;;;;;;;41.88;27.90;;;;;;;12.66;37.25;103217.81;5090416;28;20036;-73
2022/03/21 10:23:16;;;;;;;42.90;26.05;;;;;;;13.35;37.81;103214.91;5090990;28;20381;-71
2022/03/21 10:25:43;;;;;;;44.67;27.77;;;;;;;13.09;37.45;103215.97;5095459;28;20083;-72
2022/03/21 10:28:09;;;;;;;40.60;25.13;;;;;;;13.43;36.44;103214.63;5090346;28;20032;-72
2022/03/21 10:30:42;;;;;;;37.20;22.25;;;;;;;13.36;35.85;103213.84;5077039;28;20152;-73
2022/03/21 10:33:08;;;;;;;25.95;16.77;;;;;;;13.58;34.30;103209.59;5070119;28;20517;-72
2022/03/21 10:35:44;;;;;;;29.00;17.55;;;;;;;12.98;36.60;103213.16;5070318;28;20048;-71
2022/03/21 10:38:10;;;;;;;29.55;18.60;;;;;;;13.97;35.28;103211.84;5070786;28;20643;-72
2022/03/21 10:40:44;;;;;;;31.45;19.38;;;;;;;14.20;35.19;103208.44;5068464;28;20048;-71
2022/03/21 10:43:13;;;;;;;22.73;13.57;;;;;;;14.12;32.47;103197.81;5070089;28;20040;-73
2022/03/21 10:45:40;;;;;;;31.80;13.65;;;;;;;13.61;33.42;103200.16;5086444;28;20033;-72
2022/03/21 10:48:07;;;;;;;27.77;13.25;;;;;;;14.21;33.05;103195.59;5090304;28;20033;-72
2022/03/21 10:50:41;;;;;;;22.63;14.00;;;;;;;13.94;34.20;103200.56;5089934;28;20036;-72
2022/03/21 10:53:18;;;;;;;28.38;14.85;;;;;;;13.91;32.75;103204.56;5087154;28;20027;-72
2022/03/21 10:56:03;;;;;;;28.42;15.63;;;;;;;14.71;33.23;103205.97;5089884;28;20088;-72
2022/03/21 10:58:47;;;;;;;27.92;16.98;;;;;;;14.64;32.76;103202.50;5087657;28;20052;-71
2022/03/21 11:01:13;;;;;;;35.13;18.17;;;;;;;15.06;33.03;103200.56;5090330;28;20043;-71
2022/03/21 11:03:43;;;;;;;32.67;18.27;;;;;;;14.29;32.78;103200.72;5093275;28;20036;-72
2022/03/21 11:06:12;;;;;;;32.25;20.48;;;;;;;13.11;34.25;103204.84;5090143;28;20039;-71
2022/03/21 11:08:39;;;;;;;37.92;17.92;;;;;;;14.12;31.78;103203.25;5089855;28;20028;-72
2022/03/21 11:11:05;;;;;;;29.75;17.90;;;;;;;14.22;33.05;103202.75;5090390;28;20028;-72
2022/03/21 11:13:32;;;;;;;33.60;17.42;;;;;;;15.04;31.81;103196.38;5071243;28;20397;-71
2022/03/21 11:15:58;;;;;;;31.40;19.55;;;;;;;15.31;32.63;103194.81;5091175;28;20389;-73
2022/03/21 11:18:26;;;;;;;33.88;18.85;;;;;;;15.10;31.40;103195.44;5093858;28;20512;-74
2022/03/21 11:20:52;;;;;;;29.50;18.42;;;;;;;14.68;31.35;103192.75;5095935;28;20104;-71
2022/03/21 11:23:18;;;;;;;33.20;19.25;;;;;;;15.72;31.78;103200.94;5106141;28;20086;-72
2022/03/21 11:26:03;;;;;;;34.53;19.70;;;;;;;14.94;29.56;103186.00;5100956;28;20050;-73
2022/03/21 11:28:44;;;;;;;29.83;19.73;;;;;;;15.71;31.07;103193.81;5090801;28;20028;-72
2022/03/21 11:31:34;;;;;;;31.13;19.15;;;;;;;15.12;30.16;103194.13;5081255;28;20445;-70
2022/03/21 11:34:36;;;;;;;35.72;18.88;;;;;;;15.65;30.89;103197.53;5093314;28;20036;-71